Time;durP1;ratioP1;P1;durP2;ratioP2;P2;SDS_P1;SDS_P2;PMS_P1;PMS_P2;Temp;Humidity;BMP_temperature;BMP_pressure;BME280_temperature;BME280_humidity;BME280_pressure;Samples;Min_cycle;Max_cycle;Signal;HPM_P1;HPM_P2
2023/09/14 00:01:10;;;;;;;3.03;1.27;;;25.60;46.60;;;;;;5020213;28;20048;-63
2023/09/14 00:03:35;;;;;;;3.20;1.10;;;25.60;46.60;;;;;;5034655;28;20138;-63
2023/09/14 00:06:02;;;;;;;2.58;1.17;;;25.60;46.60;;;;;;5034782;28;20037;-63
2023/09/14 00:08:30;;;;;;;2.17;1.00;;;25.60;46.60;;;;;;5045881;28;20033;-63
2023/09/14 00:11:02;;;;;;;2.60;0.93;;;25.60;46.60;;;;;;5034455;28;20064;-63
2023/09/14 00:13:28;;;;;;;3.50;0.98;;;25.60;46.60;;;;;;5034714;28;20206;-65
2023/09/14 00:15:54;;;;;;;2.30;1.02;;;25.60;46.60;;;;;;5039095;28;20097;-63
2023/09/14 00:18:20;;;;;;;2.58;0.88;;;25.60;46.70;;;;;;5044216;28;20032;-63
2023/09/14 00:20:46;;;;;;;1.60;1.02;;;25.60;46.70;;;;;;5035888;28;20041;-63
2023/09/14 00:23:12;;;;;;;2.65;1.25;;;25.50;46.60;;;;;;5035144;28;20041;-63
2023/09/14 00:25:38;;;;;;;2.67;1.15;;;25.60;46.70;;;;;;5033963;28;20091;-64
2023/09/14 00:28:04;;;;;;;2.25;1.00;;;25.60;46.70;;;;;;5014805;28;20040;-63
2023/09/14 00:30:30;;;;;;;1.73;0.98;;;25.50;46.60;;;;;;5032763;28;20030;-64
2023/09/14 00:32:56;;;;;;;1.35;0.80;;;25.50;46.60;;;;;;5038706;28;20101;-64
2023/09/14 00:35:22;;;;;;;2.40;1.00;;;25.50;46.60;;;;;;5044929;28;20088;-64
2023/09/14 00:37:48;;;;;;;2.78;1.05;;;25.50;46.60;;;;;;5034038;28;20083;-65
2023/09/14 00:40:15;;;;;;;1.98;0.98;;;25.50;46.60;;;;;;5015765;28;20033;-63
2023/09/14 00:42:46;;;;;;;2.47;1.08;;;25.50;46.70;;;;;;5015085;28;20448;-65
2023/09/14 00:45:19;;;;;;;2.63;1.02;;;25.50;46.60;;;;;;5035201;28;20149;-63
2023/09/14 00:47:50;;;;;;;1.13;0.65;;;25.50;46.60;;;;;;5011222;28;20330;-63
2023/09/14 00:50:17;;;;;;;1.92;1.08;;;25.50;46.60;;;;;;5019394;28;20140;-64
2023/09/14 00:52:46;;;;;;;2.40;1.00;;;25.50;46.60;;;;;;5032464;28;20610;-64
2023/09/14 00:55:17;;;;;;;1.58;0.88;;;25.50;46.60;;;;;;5016013;28;20129;-63
2023/09/14 00:57:44;;;;;;;2.30;1.00;;;25.50;46.60;;;;;;5018659;28;20470;-63
2023/09/14 01:00:11;;;;;;;3.17;1.75;;;25.40;46.50;;;;;;5021525;28;20176;-64
2023/09/14 01:02:40;;;;;;;3.17;1.15;;;25.50;46.50;;;;;;5007614;28;20037;-63
2023/09/14 01:05:07;;;;;;;2.67;1.13;;;25.50;46.50;;;;;;5025996;28;20053;-63
2023/09/14 01:07:34;;;;;;;2.65;0.95;;;25.50;46.50;;;;;;5042527;28;20044;-63
2023/09/14 01:10:00;;;;;;;2.33;1.00;;;25.40;46.40;;;;;;5010567;28;20349;-64
2023/09/14 01:12:27;;;;;;;2.38;0.85;;;25.50;46.40;;;;;;5029310;28;20033;-63
2023/09/14 01:15:15;;;;;;;1.73;0.95;;;25.40;46.40;;;;;;5023180;28;20325;-63
2023/09/14 01:17:58;;;;;;;2.65;0.93;;;25.40;46.30;;;;;;5025727;28;20483;-65
2023/09/14 01:20:52;;;;;;;2.22;1.00;;;25.40;46.30;;;;;;5022985;28;20067;-63
2023/09/14 01:23:41;;;;;;;1.67;0.80;;;25.40;46.30;;;;;;5023730;28;20040;-63
2023/09/14 01:26:09;;;;;;;1.70;1.05;;;25.40;46.30;;;;;;5019755;28;20294;-65
2023/09/14 01:28:35;;;;;;;1.50;0.95;;;25.40;46.30;;;;;;5033975;28;20034;-63
2023/09/14 01:31:01;;;;;;;2.35;0.93;;;25.40;46.30;;;;;;5014638;28;20041;-63
2023/09/14 01:33:29;;;;;;;4.05;1.38;;;25.40;46.30;;;;;;5032153;28;20372;-64
2023/09/14 01:36:23;;;;;;;2.17;1.00;;;25.40;46.30;;;;;;5045587;28;20166;-64
2023/09/14 01:38:52;;;;;;;2.90;0.90;;;25.30;46.20;;;;;;5025132;28;20033;-63
2023/09/14 01:41:19;;;;;;;1.65;1.00;;;25.40;46.30;;;;;;5032527;28;20049;-64
2023/09/14 01:43:48;;;;;;;2.70;1.13;;;25.40;46.20;;;;;;5032681;28;20186;-63
2023/09/14 01:46:14;;;;;;;1.52;0.90;;;25.30;46.10;;;;;;5015003;28;20057;-63
2023/09/14 01:48:40;;;;;;;2.15;0.70;;;25.30;46.10;;;;;;5032675;28;20045;-63
2023/09/14 01:51:06;;;;;;;2.90;1.20;;;25.30;46.10;;;;;;5032746;28;20041;-65
2023/09/14 01:53:32;;;;;;;2.00;0.98;;;25.30;46.10;;;;;;5046881;28;20344;-66
2023/09/14 01:55:58;;;;;;;2.25;1.00;;;25.30;46.70;;;;;;5031846;28;20455;-63
2023/09/14 01:58:25;;;;;;;1.05;0.80;;;25.30;46.00;;;;;;5031234;28;20029;-64
2023/09/14 02:00:51;;;;;;;1.98;1.02;;;25.30;46.00;;;;;;5008342;28;20033;-63
2023/09/14 02:03:16;;;;;;;2.70;0.90;;;25.30;46.00;;;;;;5031252;28;20090;-64
2023/09/14 02:05:43;;;;;;;2.67;0.88;;;25.30;45.90;;;;;;5032116;28;20033;-63
2023/09/14 02:08:09;;;;;;;2.25;1.00;;;25.30;45.90;;;;;;5022191;28;20040;-64
2023/09/14 02:10:35;;;;;;;1.55;0.88;;;25.30;45.90;;;;;;5020733;28;20124;-63
2023/09/14 02:13:01;;;;;;;2.75;1.27;;;25.30;45.80;;;;;;5014585;28;20025;-64
2023/09/14 02:15:27;;;;;;;3.15;1.13;;;25.30;45.80;;;;;;5032010;28;20041;-65
2023/09/14 02:17:53;;;;;;;1.75;1.05;;;25.30;45.80;;;;;;5023362;28;20348;-64
2023/09/14 02:20:19;;;;;;;2.55;1.10;;;25.30;45.80;;;;;;5039348;28;20037;-63
2023/09/14 02:22:45;;;;;;;3.00;1.10;;;25.30;46.40;;;;;;5004760;28;20037;-63
2023/09/14 02:25:11;;;;;;;2.17;1.05;;;25.30;45.70;;;;;;5014256;28;20041;-63
2023/09/14 02:27:37;;;;;;;1.38;0.70;;;25.30;45.70;;;;;;5032644;28;20033;-63
2023/09/14 02:30:03;;;;;;;2.08;1.00;;;25.30;45.70;;;;;;5033151;28;20061;-65
2023/09/14 02:32:29;;;;;;;2.58;1.15;;;25.30;45.70;;;;;;5021089;28;20029;-64
2023/09/14 02:34:55;;;;;;;2.55;1.10;;;25.30;45.60;;;;;;5035331;28;20090;-63
2023/09/14 02:37:21;;;;;;;3.00;0.80;;;25.30;45.60;;;;;;5016954;28;20336;-64
2023/09/14 02:39:47;;;;;;;1.90;1.10;;;25.20;45.60;;;;;;5001276;28;20026;-65
2023/09/14 02:42:13;;;;;;;1.90;0.90;;;25.20;45.60;;;;;;5012316;28;20122;-63
2023/09/14 02:44:38;;;;;;;3.47;1.10;;;25.20;45.50;;;;;;5032196;28;20107;-63
2023/09/14 02:47:04;;;;;;;3.63;1.20;;;25.20;45.50;;;;;;5034607;28;20440;-64
2023/09/14 02:49:30;;;;;;;1.90;0.90;;;25.20;45.50;;;;;;5031867;28;20045;-64
2023/09/14 02:51:56;;;;;;;2.35;1.10;;;25.20;45.50;;;;;;5017907;28;20033;-64
2023/09/14 02:54:22;;;;;;;2.67;1.30;;;25.20;45.50;;;;;;5002999;28;20026;-64
2023/09/14 02:56:48;;;;;;;2.15;1.10;;;25.20;45.50;;;;;;4999435;28;20049;-63
2023/09/14 02:59:16;;;;;;;3.25;1.10;;;25.20;45.50;;;;;;5028208;28;20451;-64
2023/09/14 03:01:44;;;;;;;2.08;1.17;;;25.20;45.50;;;;;;5013982;28;20048;-64
2023/09/14 03:04:13;;;;;;;1.98;1.13;;;25.20;45.50;;;;;;5005700;28;20026;-64
2023/09/14 03:06:40;;;;;;;3.83;1.20;;;25.20;45.50;;;;;;5010883;28;20573;-63
2023/09/14 03:09:06;;;;;;;1.92;1.05;;;25.20;45.40;;;;;;5008854;28;20037;-64
2023/09/14 03:11:32;;;;;;;2.08;1.02;;;25.20;45.40;;;;;;5001504;28;20034;-63
2023/09/14 03:13:57;;;;;;;2.33;0.90;;;25.20;45.40;;;;;;5031358;28;20104;-64
2023/09/14 03:16:23;;;;;;;2.08;1.00;;;25.20;45.40;;;;;;5016993;28;20071;-65
2023/09/14 03:18:49;;;;;;;2.13;1.00;;;25.20;45.40;;;;;;5016424;28;20025;-64
2023/09/14 03:21:23;;;;;;;1.70;0.90;;;25.20;45.40;;;;;;5014114;28;20108;-64
2023/09/14 03:23:50;;;;;;;3.20;1.20;;;25.10;45.30;;;;;;5013665;28;20060;-66
2023/09/14 03:26:17;;;;;;;2.05;0.90;;;25.20;45.40;;;;;;5014360;28;20111;-63
2023/09/14 03:28:43;;;;;;;2.45;1.10;;;25.20;45.40;;;;;;5014255;28;20033;-63
2023/09/14 03:31:09;;;;;;;2.05;0.73;;;25.10;45.30;;;;;;5013959;28;20045;-65
2023/09/14 03:33:35;;;;;;;1.80;1.00;;;25.10;45.30;;;;;;5013454;28;20137;-64
2023/09/14 03:36:01;;;;;;;2.33;1.17;;;25.10;45.30;;;;;;5014552;28;20217;-64
2023/09/14 03:38:29;;;;;;;1.92;0.85;;;25.10;45.30;;;;;;5014163;28;20026;-63
2023/09/14 03:40:55;;;;;;;1.88;0.85;;;25.10;45.30;;;;;;5011676;28;20048;-64
2023/09/14 03:43:20;;;;;;;2.85;1.10;;;25.10;45.30;;;;;;5012179;28;20193;-65
2023/09/14 03:45:47;;;;;;;2.38;1.00;;;25.10;45.30;;;;;;4994572;28;20030;-63
2023/09/14 03:48:13;;;;;;;2.13;1.10;;;25.00;45.20;;;;;;5026232;28;20136;-64
2023/09/14 03:50:38;;;;;;;2.50;0.77;;;25.10;45.90;;;;;;5013628;28;20179;-63
2023/09/14 03:53:05;;;;;;;2.22;0.88;;;25.10;45.30;;;;;;5009866;28;20030;-65
2023/09/14 03:55:31;;;;;;;2.33;0.90;;;25.00;45.20;;;;;;5020806;28;20309;-66
2023/09/14 03:57:58;;;;;;;1.50;1.00;;;25.00;45.20;;;;;;5012615;28;20030;-64
2023/09/14 04:00:24;;;;;;;1.83;1.00;;;25.00;45.20;;;;;;5012843;28;20037;-65
2023/09/14 04:02:50;;;;;;;2.78;1.05;;;25.00;45.20;;;;;;5030100;28;20029;-63
2023/09/14 04:05:18;;;;;;;2.65;0.93;;;25.00;45.20;;;;;;4997005;28;20152;-64
2023/09/14 04:07:44;;;;;;;2.45;1.13;;;25.00;45.20;;;;;;5014584;28;20075;-63
2023/09/14 04:10:10;;;;;;;2.95;1.13;;;25.00;45.20;;;;;;5012735;28;20053;-64
2023/09/14 04:12:38;;;;;;;3.13;1.13;;;25.00;45.30;;;;;;5031865;28;20112;-66
2023/09/14 04:15:05;;;;;;;2.92;1.20;;;25.00;45.30;;;;;;5030632;28;20163;-63
2023/09/14 04:17:31;;;;;;;2.20;1.00;;;25.00;45.30;;;;;;5016267;28;20025;-64
2023/09/14 04:19:57;;;;;;;3.40;1.10;;;25.00;45.30;;;;;;5005959;28;20025;-66
2023/09/14 04:22:24;;;;;;;2.00;1.00;;;25.00;45.30;;;;;;5030145;28;20043;-63
2023/09/14 04:24:50;;;;;;;2.50;1.10;;;25.00;45.20;;;;;;5035005;28;20026;-63
2023/09/14 04:27:16;;;;;;;2.00;1.10;;;25.00;45.30;;;;;;5034450;28;20033;-64
2023/09/14 04:29:43;;;;;;;1.85;0.98;;;25.00;45.30;;;;;;5007088;28;20120;-64
2023/09/14 04:32:09;;;;;;;3.58;1.10;;;24.90;45.20;;;;;;5032647;28;20316;-63
2023/09/14 04:34:35;;;;;;;2.53;1.08;;;25.00;45.20;;;;;;5024941;28;20041;-64
2023/09/14 04:37:01;;;;;;;2.38;1.10;;;24.90;45.20;;;;;;5016608;28;20044;-64
2023/09/14 04:39:27;;;;;;;2.53;1.02;;;24.90;45.20;;;;;;5010040;28;20026;-65
2023/09/14 04:41:53;;;;;;;1.88;0.98;;;24.90;45.20;;;;;;5013169;28;20045;-65
2023/09/14 04:44:19;;;;;;;2.22;1.00;;;24.90;45.20;;;;;;5006279;28;20432;-65
2023/09/14 04:46:45;;;;;;;1.67;0.98;;;24.90;45.20;;;;;;5008193;28;20424;-64
2023/09/14 04:49:13;;;;;;;2.85;1.00;;;24.90;45.20;;;;;;5036375;28;20044;-64
2023/09/14 04:51:39;;;;;;;2.20;1.10;;;24.90;45.20;;;;;;5034488;28;20061;-62
2023/09/14 04:54:05;;;;;;;2.25;1.00;;;24.90;45.20;;;;;;5016049;28;20076;-64
2023/09/14 04:56:31;;;;;;;1.58;0.85;;;24.90;45.20;;;;;;5016068;28;20040;-63
2023/09/14 04:58:58;;;;;;;1.90;0.93;;;24.90;45.20;;;;;;5019949;28;20330;-65
2023/09/14 05:01:23;;;;;;;1.95;0.88;;;24.90;45.20;;;;;;5017221;28;20033;-62
2023/09/14 05:03:50;;;;;;;2.33;1.10;;;24.90;45.20;;;;;;5015735;28;20066;-65
2023/09/14 05:06:16;;;;;;;3.08;1.10;;;24.90;45.20;;;;;;5016818;28;20044;-63
2023/09/14 05:08:42;;;;;;;1.77;0.90;;;24.90;45.20;;;;;;5018095;28;20104;-65
2023/09/14 05:11:09;;;;;;;2.20;0.98;;;24.90;45.20;;;;;;5029987;28;20025;-63
2023/09/14 05:13:35;;;;;;;2.15;0.98;;;24.90;45.20;;;;;;5015688;28;20025;-62
2023/09/14 05:16:01;;;;;;;1.98;0.90;;;24.90;45.20;;;;;;5018149;28;20397;-63
2023/09/14 05:18:27;;;;;;;3.50;0.90;;;24.90;45.20;;;;;;5016671;28;20033;-64
2023/09/14 05:20:54;;;;;;;2.45;1.10;;;24.80;45.20;;;;;;5015789;28;20421;-64
2023/09/14 05:23:19;;;;;;;1.58;0.85;;;24.80;45.20;;;;;;5027855;28;20059;-65
2023/09/14 05:25:47;;;;;;;1.23;0.88;;;24.90;45.30;;;;;;5029188;28;20397;-62
2023/09/14 05:28:14;;;;;;;2.53;1.05;;;24.90;45.30;;;;;;4996121;28;20033;-62
2023/09/14 05:30:42;;;;;;;1.88;0.98;;;24.80;45.30;;;;;;5029034;28;20025;-64
2023/09/14 05:33:09;;;;;;;2.28;1.00;;;24.80;45.30;;;;;;5007722;28;20036;-63
2023/09/14 05:35:37;;;;;;;2.85;1.10;;;24.80;45.30;;;;;;5027135;28;20099;-64
2023/09/14 05:38:03;;;;;;;1.65;0.80;;;24.80;45.30;;;;;;5030958;28;20029;-63
2023/09/14 05:40:32;;;;;;;2.40;1.13;;;24.80;45.40;;;;;;5002824;28;20352;-61
2023/09/14 05:42:59;;;;;;;2.78;1.20;;;24.80;45.40;;;;;;5013533;28;20050;-64
2023/09/14 05:45:25;;;;;;;2.47;1.10;;;24.80;45.30;;;;;;5005697;28;20068;-63
2023/09/14 05:47:51;;;;;;;3.17;1.35;;;24.80;45.20;;;;;;5028621;28;20052;-62
2023/09/14 05:50:17;;;;;;;2.13;1.10;;;24.80;45.10;;;;;;5032438;28;20475;-64
2023/09/14 05:52:43;;;;;;;1.83;0.85;;;24.80;45.00;;;;;;4995119;28;20025;-63
2023/09/14 05:55:09;;;;;;;2.97;1.20;;;24.70;44.90;;;;;;5030673;28;20045;-62
2023/09/14 05:57:35;;;;;;;5.30;1.40;;;24.70;44.90;;;;;;5022325;28;20045;-63
2023/09/14 06:00:08;;;;;;;2.63;1.00;;;24.70;44.90;;;;;;5043222;28;20034;-64
2023/09/14 06:02:42;;;;;;;2.15;1.30;;;24.80;44.90;;;;;;5030028;28;20041;-61
2023/09/14 06:05:11;;;;;;;2.03;1.25;;;24.70;44.80;;;;;;5011374;28;20121;-64
2023/09/14 06:07:37;;;;;;;2.47;1.40;;;24.70;44.80;;;;;;5029098;28;20463;-63
2023/09/14 06:10:03;;;;;;;2.83;1.30;;;24.70;44.80;;;;;;5029783;28;20033;-63
2023/09/14 06:12:30;;;;;;;2.35;1.13;;;24.70;44.80;;;;;;5035022;28;20026;-62
2023/09/14 06:14:57;;;;;;;3.25;1.23;;;24.70;44.80;;;;;;5022279;28;20022;-65
2023/09/14 06:17:23;;;;;;;2.53;0.98;;;24.70;44.80;;;;;;5007176;28;20471;-66
2023/09/14 06:19:49;;;;;;;3.25;1.30;;;24.70;44.80;;;;;;5052618;28;20082;-62
2023/09/14 06:22:15;;;;;;;3.38;1.40;;;24.70;44.80;;;;;;5052684;28;20045;-64
2023/09/14 06:24:40;;;;;;;2.38;1.02;;;24.70;44.80;;;;;;5036415;28;20433;-62
2023/09/14 06:27:06;;;;;;;2.88;1.23;;;24.70;44.80;;;;;;5032723;28;20401;-62
2023/09/14 06:29:32;;;;;;;3.10;1.40;;;24.70;44.80;;;;;;5032841;28;20139;-63
2023/09/14 06:31:58;;;;;;;3.35;1.33;;;24.70;44.80;;;;;;5032315;28;20036;-62
2023/09/14 06:34:24;;;;;;;2.10;1.05;;;24.70;44.80;;;;;;5032774;28;20025;-63
2023/09/14 06:36:50;;;;;;;2.95;1.30;;;24.70;44.90;;;;;;5032218;28;20456;-62
2023/09/14 06:39:16;;;;;;;2.97;1.02;;;24.70;44.90;;;;;;5014880;28;20033;-62
2023/09/14 06:41:42;;;;;;;2.80;1.30;;;24.70;44.90;;;;;;5032250;28;20042;-63
2023/09/14 06:44:09;;;;;;;3.60;1.10;;;24.70;44.90;;;;;;5014973;28;20116;-64
2023/09/14 06:46:35;;;;;;;2.53;1.05;;;24.70;45.00;;;;;;5031497;28;20111;-63
2023/09/14 06:49:01;;;;;;;2.03;0.90;;;24.70;45.00;;;;;;5049742;28;20060;-64
2023/09/14 06:51:28;;;;;;;2.65;1.30;;;24.70;45.00;;;;;;5052324;28;20025;-63
2023/09/14 06:53:54;;;;;;;1.85;0.93;;;24.70;45.00;;;;;;5052135;28;20045;-65
2023/09/14 06:56:20;;;;;;;2.17;1.20;;;24.70;45.10;;;;;;5052421;28;20028;-63
2023/09/14 06:58:46;;;;;;;3.72;1.27;;;24.70;45.10;;;;;;5052313;28;20025;-62
2023/09/14 07:01:12;;;;;;;2.15;1.10;;;24.70;45.20;;;;;;5052199;28;20032;-62
2023/09/14 07:03:38;;;;;;;1.92;1.10;;;24.70;45.20;;;;;;5032697;28;20069;-63
2023/09/14 07:06:04;;;;;;;3.05;1.05;;;24.70;45.20;;;;;;5031712;28;20436;-62
2023/09/14 07:08:30;;;;;;;4.15;1.00;;;24.70;45.20;;;;;;5027842;28;20036;-61
2023/09/14 07:10:56;;;;;;;1.40;1.00;;;24.70;45.20;;;;;;5034416;28;20207;-62
2023/09/14 07:13:23;;;;;;;2.33;1.10;;;24.70;45.30;;;;;;5034429;28;20356;-63
2023/09/14 07:15:49;;;;;;;2.53;1.27;;;24.70;45.30;;;;;;5052689;28;20033;-61
2023/09/14 07:18:30;;;;;;;2.75;1.27;;;24.70;45.30;;;;;;5045797;28;20040;-63
2023/09/14 07:20:58;;;;;;;3.40;1.20;;;24.70;45.40;;;;;;5032032;28;20449;-63
2023/09/14 07:23:27;;;;;;;2.00;1.00;;;24.70;45.40;;;;;;5049804;28;20108;-64
2023/09/14 07:25:53;;;;;;;3.58;1.38;;;24.70;45.40;;;;;;5051930;28;20051;-64
2023/09/14 07:28:20;;;;;;;2.35;1.20;;;24.70;45.40;;;;;;5051694;28;20025;-62
2023/09/14 07:30:47;;;;;;;4.40;1.50;;;24.70;45.40;;;;;;5052092;28;20043;-63
2023/09/14 07:33:14;;;;;;;2.25;1.02;;;24.70;45.40;;;;;;5051740;28;20394;-64
2023/09/14 07:35:40;;;;;;;3.33;1.27;;;24.70;45.40;;;;;;5022400;28;20033;-62
2023/09/14 07:38:12;;;;;;;2.20;1.27;;;24.70;45.40;;;;;;5032013;28;20052;-64
2023/09/14 07:40:38;;;;;;;2.13;1.10;;;24.70;45.40;;;;;;4997720;28;20065;-62
2023/09/14 07:43:04;;;;;;;2.90;1.00;;;24.70;45.40;;;;;;5029623;28;20032;-64
2023/09/14 07:45:33;;;;;;;2.45;1.20;;;24.80;45.40;;;;;;5051245;28;20122;-62
2023/09/14 07:48:01;;;;;;;1.55;0.90;;;24.70;45.40;;;;;;5033712;28;20092;-63
2023/09/14 07:50:27;;;;;;;2.28;1.20;;;24.70;45.40;;;;;;5051620;28;20029;-63
2023/09/14 07:52:53;;;;;;;3.05;0.95;;;24.70;45.40;;;;;;5048342;28;20037;-62
2023/09/14 07:55:19;;;;;;;2.47;1.10;;;24.70;45.40;;;;;;5051978;28;20033;-63
2023/09/14 07:57:45;;;;;;;2.65;1.10;;;24.80;45.40;;;;;;5053698;28;20021;-63
2023/09/14 08:00:11;;;;;;;2.70;1.30;;;24.70;45.30;;;;;;5055992;28;20029;-64
2023/09/14 08:02:40;;;;;;;2.72;1.13;;;24.70;45.30;;;;;;5055725;28;20031;-62
2023/09/14 08:05:06;;;;;;;3.03;1.45;;;24.70;45.30;;;;;;5037358;28;20037;-63
2023/09/14 08:07:32;;;;;;;2.00;1.05;;;24.70;45.30;;;;;;5051198;28;20049;-63
2023/09/14 08:09:58;;;;;;;2.50;1.10;;;24.80;45.30;;;;;;5055829;28;20037;-62
2023/09/14 08:12:24;;;;;;;2.75;1.30;;;24.80;45.30;;;;;;5038198;28;20322;-63
2023/09/14 08:14:50;;;;;;;2.65;1.23;;;24.70;45.20;;;;;;5055282;28;20044;-62
2023/09/14 08:17:16;;;;;;;3.58;1.33;;;24.80;45.20;;;;;;5032318;28;20041;-63
2023/09/14 08:19:43;;;;;;;4.03;1.45;;;24.80;45.90;;;;;;5037079;28;20047;-61
2023/09/14 08:22:09;;;;;;;2.67;1.30;;;24.80;45.30;;;;;;5055044;28;20068;-62
2023/09/14 08:24:36;;;;;;;2.78;1.10;;;24.70;45.20;;;;;;5055556;28;20032;-64
2023/09/14 08:27:01;;;;;;;3.88;1.48;;;24.80;45.90;;;;;;5036357;28;20029;-64
2023/09/14 08:29:29;;;;;;;3.15;1.45;;;24.80;45.20;;;;;;5054936;28;20109;-63
2023/09/14 08:31:55;;;;;;;2.67;1.30;;;24.80;45.20;;;;;;5054775;28;20092;-62
2023/09/14 08:34:21;;;;;;;2.78;1.10;;;24.80;45.20;;;;;;5055003;28;20041;-64
2023/09/14 08:36:47;;;;;;;2.00;1.10;;;24.80;45.20;;;;;;5020505;28;20029;-63
2023/09/14 08:39:13;;;;;;;3.15;1.48;;;24.80;45.20;;;;;;5035199;28;20421;-64
2023/09/14 08:41:40;;;;;;;3.30;1.35;;;24.80;45.10;;;;;;5034409;28;20396;-65
2023/09/14 08:44:07;;;;;;;3.05;1.50;;;24.80;45.10;;;;;;5036738;28;20107;-64
2023/09/14 08:46:34;;;;;;;2.65;1.42;;;24.80;45.10;;;;;;5046419;28;20369;-64
2023/09/14 08:49:02;;;;;;;3.15;1.42;;;24.80;45.10;;;;;;5034067;28;20503;-66
2023/09/14 08:51:31;;;;;;;4.10;1.65;;;24.90;45.10;;;;;;5034514;28;20420;-65
2023/09/14 08:53:59;;;;;;;4.10;1.45;;;24.90;45.10;;;;;;5037365;28;20105;-68
2023/09/14 08:56:26;;;;;;;2.75;1.42;;;24.90;45.00;;;;;;5045647;28;20048;-65
2023/09/14 08:58:54;;;;;;;3.10;1.30;;;24.80;44.90;;;;;;5044949;28;20021;-64
2023/09/14 09:01:20;;;;;;;3.95;1.75;;;24.80;44.90;;;;;;5034219;28;20041;-64
2023/09/14 09:03:46;;;;;;;4.20;1.42;;;24.80;44.90;;;;;;5014928;28;20424;-63
2023/09/14 09:06:12;;;;;;;3.70;1.48;;;24.80;44.80;;;;;;5025346;28;20047;-65
2023/09/14 09:08:38;;;;;;;3.10;1.35;;;24.90;44.90;;;;;;5027376;28;20030;-65
2023/09/14 09:11:05;;;;;;;3.97;1.65;;;24.90;44.90;;;;;;5031344;28;20356;-67
2023/09/14 09:13:36;;;;;;;2.35;1.30;;;24.80;44.70;;;;;;5011669;28;20043;-62
2023/09/14 09:16:02;;;;;;;2.78;1.25;;;24.90;44.80;;;;;;5035664;28;20051;-62
2023/09/14 09:18:28;;;;;;;2.90;1.40;;;24.90;44.70;;;;;;5030526;28;20029;-64
2023/09/14 09:20:54;;;;;;;3.55;1.50;;;24.90;44.70;;;;;;5035034;28;20104;-63
2023/09/14 09:23:21;;;;;;;4.05;1.73;;;24.90;44.70;;;;;;5036977;28;20113;-65
2023/09/14 09:25:48;;;;;;;3.33;1.60;;;24.90;44.70;;;;;;5009357;28;20053;-62
2023/09/14 09:28:15;;;;;;;4.22;1.70;;;24.90;44.80;;;;;;5028557;28;20030;-65
2023/09/14 09:30:41;;;;;;;3.45;1.83;;;24.90;44.80;;;;;;5027007;28;20036;-62
2023/09/14 09:33:07;;;;;;;3.65;1.40;;;24.90;44.90;;;;;;5031458;28;20029;-65
2023/09/14 09:35:37;;;;;;;4.28;1.83;;;24.90;44.80;;;;;;5027092;28;20040;-63
2023/09/14 09:38:15;;;;;;;2.85;1.75;;;24.90;44.90;;;;;;5026858;28;20025;-65
2023/09/14 09:40:45;;;;;;;3.10;1.55;;;24.90;44.90;;;;;;5023116;28;20071;-63
2023/09/14 09:43:18;;;;;;;3.90;2.10;;;24.90;44.90;;;;;;5024609;28;20052;-64
2023/09/14 09:45:46;;;;;;;3.90;1.92;;;24.90;45.00;;;;;;5008987;28;20053;-63
2023/09/14 09:48:13;;;;;;;3.30;1.70;;;24.90;45.00;;;;;;5027695;28;20099;-63
2023/09/14 09:50:39;;;;;;;4.75;2.05;;;24.90;45.00;;;;;;5010202;28;20491;-67
2023/09/14 09:53:14;;;;;;;4.38;1.98;;;24.90;45.10;;;;;;5036393;28;20036;-63
2023/09/14 09:55:42;;;;;;;3.60;1.88;;;25.00;45.20;;;;;;5039371;28;20465;-64
2023/09/14 09:58:08;;;;;;;3.85;1.73;;;25.00;45.20;;;;;;5039236;28;20079;-62
2023/09/14 10:00:37;;;;;;;3.50;1.65;;;25.00;45.20;;;;;;5030297;28;20111;-64
2023/09/14 10:03:03;;;;;;;2.22;1.42;;;25.00;45.20;;;;;;5030685;28;20037;-66
2023/09/14 10:05:31;;;;;;;3.30;1.70;;;25.00;45.20;;;;;;5005382;28;20029;-63
2023/09/14 10:07:58;;;;;;;3.40;1.70;;;25.00;45.20;;;;;;5027387;28;20076;-63
2023/09/14 10:10:29;;;;;;;2.90;1.50;;;25.00;45.20;;;;;;5030047;28;20069;-63
2023/09/14 10:12:55;;;;;;;4.22;1.77;;;25.00;45.20;;;;;;5005664;28;20087;-62
2023/09/14 10:15:26;;;;;;;3.97;1.90;;;25.00;45.20;;;;;;5029571;28;20095;-63
2023/09/14 10:17:57;;;;;;;3.72;1.73;;;25.10;45.20;;;;;;5030987;28;20116;-62
2023/09/14 10:20:24;;;;;;;3.72;1.40;;;25.10;45.30;;;;;;4999331;28;20115;-64
2023/09/14 10:22:50;;;;;;;4.10;1.88;;;25.10;45.30;;;;;;5010451;28;20026;-62
2023/09/14 10:25:17;;;;;;;2.50;1.17;;;25.10;45.40;;;;;;5028730;28;20022;-64
2023/09/14 10:27:43;;;;;;;3.97;1.50;;;25.10;45.40;;;;;;5030223;28;20274;-64
2023/09/14 10:30:16;;;;;;;3.65;1.70;;;25.20;45.40;;;;;;5030039;28;20486;-62
2023/09/14 10:32:43;;;;;;;3.87;1.67;;;25.20;45.40;;;;;;5020688;28;20029;-65
2023/09/14 10:35:10;;;;;;;3.45;1.73;;;25.20;45.50;;;;;;5022706;28;20103;-62
2023/09/14 10:37:40;;;;;;;2.40;1.50;;;25.20;45.50;;;;;;5008935;28;20039;-63
2023/09/14 10:40:08;;;;;;;3.47;1.73;;;25.20;45.50;;;;;;5024389;28;20345;-65
2023/09/14 10:42:34;;;;;;;3.05;1.40;;;25.30;45.70;;;;;;5031619;28;20108;-64
2023/09/14 10:45:01;;;;;;;3.67;1.80;;;25.30;45.70;;;;;;5031846;28;20121;-64
2023/09/14 10:47:33;;;;;;;3.75;1.70;;;25.30;45.70;;;;;;5013151;28;20072;-64
2023/09/14 10:50:00;;;;;;;2.58;1.63;;;25.40;45.60;;;;;;5005409;28;20394;-62
2023/09/14 10:52:28;;;;;;;3.63;1.83;;;25.50;45.60;;;;;;5011652;28;20091;-63
2023/09/14 10:54:59;;;;;;;3.35;1.55;;;25.50;45.40;;;;;;5030841;28;20028;-63
2023/09/14 10:57:28;;;;;;;5.15;1.67;;;25.60;45.30;;;;;;5033804;28;20129;-65
2023/09/14 10:59:58;;;;;;;2.65;1.45;;;25.70;45.20;;;;;;5026737;28;20108;-63
2023/09/14 11:02:43;;;;;;;2.72;1.38;;;25.70;45.10;;;;;;5012874;28;20037;-63
2023/09/14 11:05:17;;;;;;;3.05;1.42;;;25.80;45.00;;;;;;5018146;28;20107;-63
2023/09/14 11:07:47;;;;;;;2.50;1.27;;;25.80;44.80;;;;;;5024331;28;20025;-64
2023/09/14 11:10:19;;;;;;;2.70;1.58;;;25.80;44.70;;;;;;5033119;28;20047;-60
2023/09/14 11:12:45;;;;;;;3.28;1.40;;;25.80;44.60;;;;;;5024828;28;20026;-59
2023/09/14 11:15:16;;;;;;;2.60;1.38;;;25.90;44.70;;;;;;5030777;28;20032;-59
2023/09/14 11:17:46;;;;;;;2.30;1.40;;;25.90;44.60;;;;;;5024159;28;20037;-60
2023/09/14 11:20:38;;;;;;;2.47;1.30;;;25.90;44.60;;;;;;5014272;28;20037;-59
2023/09/14 11:23:04;;;;;;;1.92;0.90;;;25.90;44.50;;;;;;5026191;28;20155;-62
2023/09/14 11:25:41;;;;;;;2.17;1.25;;;25.90;44.50;;;;;;5012227;28;20456;-61
2023/09/14 11:28:21;;;;;;;2.90;1.42;;;26.00;44.50;;;;;;5027181;28;20575;-60
2023/09/14 11:30:51;;;;;;;2.45;1.52;;;26.00;44.50;;;;;;5023390;28;20033;-61
2023/09/14 11:33:17;;;;;;;2.05;1.30;;;26.00;44.50;;;;;;5007022;28;20344;-61
2023/09/14 11:35:47;;;;;;;2.45;1.33;;;26.00;44.60;;;;;;5032129;28;20032;-61
2023/09/14 11:38:22;;;;;;;2.83;1.30;;;26.00;44.70;;;;;;5029439;28;20088;-61
2023/09/14 11:40:48;;;;;;;2.05;1.30;;;26.00;44.80;;;;;;5034243;28;20064;-62
2023/09/14 11:43:23;;;;;;;2.67;1.45;;;26.00;44.90;;;;;;5015628;28;20024;-62
2023/09/14 11:45:56;;;;;;;2.20;1.40;;;26.00;45.00;;;;;;5031369;28;20136;-63
2023/09/14 11:48:23;;;;;;;1.95;1.10;;;26.00;45.00;;;;;;5043051;28;20079;-63
2023/09/14 11:50:52;;;;;;;2.67;1.20;;;26.00;45.00;;;;;;5030318;28;20038;-62
2023/09/14 11:53:19;;;;;;;3.10;1.25;;;26.00;45.00;;;;;;5027354;28;20025;-63
2023/09/14 11:55:51;;;;;;;2.47;1.20;;;26.00;45.00;;;;;;5030192;28;20069;-63
2023/09/14 11:58:17;;;;;;;3.53;1.40;;;26.00;44.90;;;;;;5005861;28;20045;-61
2023/09/14 12:00:48;;;;;;;1.90;1.30;;;26.00;44.90;;;;;;5031454;28;20037;-61
2023/09/14 12:03:14;;;;;;;1.67;1.20;;;26.00;44.90;;;;;;5015102;28;20107;-63
2023/09/14 12:05:40;;;;;;;3.35;1.40;;;25.90;44.90;;;;;;5020139;28;20025;-61
2023/09/14 12:08:14;;;;;;;3.22;1.75;;;25.90;44.90;;;;;;5029148;28;20036;-64
2023/09/14 12:10:41;;;;;;;1.70;1.20;;;26.00;45.00;;;;;;5015325;28;20132;-64
2023/09/14 12:13:14;;;;;;;2.60;1.50;;;25.90;44.90;;;;;;5021988;28;20416;-64
2023/09/14 12:15:45;;;;;;;1.80;1.00;;;25.90;45.00;;;;;;5030017;28;20073;-64
2023/09/14 12:18:16;;;;;;;2.30;1.30;;;26.00;45.00;;;;;;5027572;28;20092;-64
2023/09/14 12:20:45;;;;;;;1.48;1.10;;;25.90;45.00;;;;;;5031242;28;20041;-63
2023/09/14 12:23:13;;;;;;;3.60;1.50;;;26.00;45.10;;;;;;5030878;28;20377;-64
2023/09/14 12:25:40;;;;;;;4.00;1.13;;;26.00;45.00;;;;;;5026458;28;20029;-62
2023/09/14 12:28:12;;;;;;;2.10;1.30;;;26.00;45.00;;;;;;5029220;28;20405;-65
2023/09/14 12:30:38;;;;;;;1.40;1.00;;;26.00;45.10;;;;;;5031076;28;20025;-65
2023/09/14 12:33:06;;;;;;;2.05;1.33;;;26.00;45.00;;;;;;5030585;28;20455;-62
2023/09/14 12:35:32;;;;;;;2.05;1.15;;;26.00;45.00;;;;;;5033547;28;20368;-64
2023/09/14 12:38:04;;;;;;;2.53;1.17;;;26.00;45.00;;;;;;5030765;28;20045;-66
2023/09/14 12:40:38;;;;;;;1.45;1.08;;;26.00;44.80;;;;;;5023750;28;20038;-65
2023/09/14 12:43:05;;;;;;;1.77;1.08;;;26.10;44.70;;;;;;5028525;28;20025;-66
2023/09/14 12:45:34;;;;;;;3.58;1.33;;;26.10;44.50;;;;;;5030969;28;20052;-66
2023/09/14 12:48:08;;;;;;;2.22;1.10;;;26.10;44.20;;;;;;5030759;28;20094;-66
2023/09/14 12:50:38;;;;;;;1.95;1.08;;;26.00;43.90;;;;;;5015816;28;20111;-66